Time;durP1;ratioP1;P1;durP2;ratioP2;P2;SDS_P1;SDS_P2;PMS_P1;PMS_P2;Temp;Humidity;BMP_temperature;BMP_pressure;BME280_temperature;BME280_humidity;BME280_pressure;Samples;Min_cycle;Max_cycle;Signal;HPM_P1;HPM_P2
2023/10/27 00:01:28;;;;;;;2.78;0.98;;;;;;;;;;4997614;28;20081;-20
2023/10/27 00:03:54;;;;;;;2.10;0.98;;;;;;;;;;4996893;28;20481;-18
2023/10/27 00:06:20;;;;;;;0.75;0.55;;;;;;;;;;4998350;28;20022;-18
2023/10/27 00:08:46;;;;;;;3.28;1.20;;;;;;;;;;4998585;28;20167;-19
2023/10/27 00:11:12;;;;;;;2.50;0.73;;;;;;;;;;4998570;28;20121;-20
2023/10/27 00:13:38;;;;;;;1.60;0.77;;;;;;;;;;4998134;28;20116;-20
2023/10/27 00:16:09;;;;;;;1.42;0.90;;;;;;;;;;4997881;28;20516;-22
2023/10/27 00:18:35;;;;;;;1.40;0.82;;;;;;;;;;4998128;28;20488;-19
2023/10/27 00:21:01;;;;;;;1.40;0.70;;;;;;;;;;4998151;28;20334;-17
2023/10/27 00:23:28;;;;;;;2.38;0.88;;;;;;;;;;4997911;28;20054;-17
2023/10/27 00:25:54;;;;;;;1.20;1.10;;;;;;;;;;4996866;28;20030;-20
2023/10/27 00:28:20;;;;;;;1.08;0.68;;;;;;;;;;4997719;28;20327;-22
2023/10/27 00:30:46;;;;;;;3.60;0.85;;;;;;;;;;4997604;28;20033;-24
2023/10/27 00:33:12;;;;;;;7.15;0.77;;;;;;;;;;4997573;28;20026;-27
2023/10/27 00:35:38;;;;;;;2.22;1.23;;;;;;;;;;4997571;28;20019;-20
2023/10/27 00:38:05;;;;;;;1.75;0.80;;;;;;;;;;4997587;28;20053;-17
2023/10/27 00:40:32;;;;;;;0.70;0.70;;;;;;;;;;4997464;28;20034;-17
2023/10/27 00:42:58;;;;;;;1.70;0.70;;;;;;;;;;4997460;28;20037;-19
2023/10/27 00:45:25;;;;;;;0.98;0.80;;;;;;;;;;4997431;28;20022;-19
2023/10/27 00:47:51;;;;;;;1.70;0.77;;;;;;;;;;4997923;28;20485;-19
2023/10/27 00:50:18;;;;;;;2.65;0.75;;;;;;;;;;4997312;28;20046;-19
2023/10/27 00:52:44;;;;;;;1.27;0.65;;;;;;;;;;4997173;28;20026;-17
2023/10/27 00:55:11;;;;;;;2.08;1.30;;;;;;;;;;4997272;28;20033;-21
2023/10/27 00:57:38;;;;;;;0.85;0.80;;;;;;;;;;4997724;28;20030;-18
2023/10/27 01:00:04;;;;;;;0.77;0.57;;;;;;;;;;4997664;28;20044;-20
2023/10/27 01:02:31;;;;;;;3.38;0.85;;;;;;;;;;4996961;28;20027;-21
2023/10/27 01:04:57;;;;;;;1.38;0.77;;;;;;;;;;4996842;28;20501;-19
2023/10/27 01:07:24;;;;;;;1.65;0.90;;;;;;;;;;4997287;28;20022;-19
2023/10/27 01:09:50;;;;;;;0.85;0.68;;;;;;;;;;4996884;28;20110;-20
2023/10/27 01:12:16;;;;;;;3.75;0.88;;;;;;;;;;4995772;28;20034;-20
2023/10/27 01:14:43;;;;;;;0.90;0.73;;;;;;;;;;4997111;28;20037;-18
2023/10/27 01:17:10;;;;;;;0.88;0.43;;;;;;;;;;4997576;28;20084;-20
2023/10/27 01:19:36;;;;;;;0.93;0.60;;;;;;;;;;4996756;28;20033;-20
2023/10/27 01:22:04;;;;;;;1.55;0.88;;;;;;;;;;4996801;28;20030;-17
2023/10/27 01:24:30;;;;;;;1.73;0.70;;;;;;;;;;4996706;28;20022;-19
2023/10/27 01:26:56;;;;;;;0.93;0.68;;;;;;;;;;4997349;28;20164;-24
2023/10/27 01:29:27;;;;;;;1.08;0.80;;;;;;;;;;4996588;28;20026;-21
2023/10/27 01:31:53;;;;;;;;;;;;;;;;;;4996897;28;20034;-19
2023/10/27 01:34:19;;;;;;;1.85;0.77;;;;;;;;;;4996440;28;19968;-23
2023/10/27 01:36:46;;;;;;;1.95;0.77;;;;;;;;;;4996444;28;20035;-18
2023/10/27 01:39:12;;;;;;;0.70;0.70;;;;;;;;;;4996383;28;20038;-20
2023/10/27 01:41:39;;;;;;;1.83;0.70;;;;;;;;;;4996349;28;20033;-21
2023/10/27 01:44:05;;;;;;;0.57;0.50;;;;;;;;;;4996147;28;20031;-20
2023/10/27 01:46:31;;;;;;;1.25;0.73;;;;;;;;;;4996292;28;20022;-21
2023/10/27 01:48:57;;;;;;;0.63;0.52;;;;;;;;;;4996727;28;20366;-22
2023/10/27 01:51:23;;;;;;;0.75;0.68;;;;;;;;;;4996168;28;20022;-19
2023/10/27 01:53:49;;;;;;;1.08;0.60;;;;;;;;;;4996052;28;20030;-22
2023/10/27 01:56:16;;;;;;;1.40;0.68;;;;;;;;;;4996107;28;20065;-22
2023/10/27 01:58:44;;;;;;;0.70;0.70;;;;;;;;;;4996028;28;20026;-20
2023/10/27 02:01:12;;;;;;;1.85;1.00;;;;;;;;;;4996280;28;20089;-21
2023/10/27 02:03:38;;;;;;;1.52;0.80;;;;;;;;;;4995539;28;20042;-18
2023/10/27 02:06:05;;;;;;;1.38;0.70;;;;;;;;;;4996139;28;20018;-18
2023/10/27 02:08:31;;;;;;;1.17;0.80;;;;;;;;;;4995879;28;20026;-19
2023/10/27 02:10:57;;;;;;;1.30;0.80;;;;;;;;;;4995846;28;20022;-22
2023/10/27 02:13:23;;;;;;;0.50;0.50;;;;;;;;;;4995724;28;20034;-19
2023/10/27 02:15:49;;;;;;;0.65;0.60;;;;;;;;;;4995761;28;20033;-20
2023/10/27 02:18:15;;;;;;;2.13;0.90;;;;;;;;;;4995670;28;20057;-19
2023/10/27 02:20:41;;;;;;;1.90;0.90;;;;;;;;;;4995692;28;20026;-19
2023/10/27 02:23:08;;;;;;;2.35;1.10;;;;;;;;;;4995487;28;20357;-24
2023/10/27 02:25:34;;;;;;;0.88;0.60;;;;;;;;;;4995602;28;20460;-24
2023/10/27 02:28:00;;;;;;;1.20;0.68;;;;;;;;;;4995812;28;20026;-26
2023/10/27 02:30:26;;;;;;;2.17;0.70;;;;;;;;;;4995540;28;20034;-17
2023/10/27 02:32:52;;;;;;;0.77;0.55;;;;;;;;;;4995704;28;20054;-19
2023/10/27 02:35:18;;;;;;;0.70;0.70;;;;;;;;;;4995517;28;20392;-18
2023/10/27 02:37:45;;;;;;;1.13;0.85;;;;;;;;;;4995494;28;20026;-18
2023/10/27 02:40:11;;;;;;;4.90;2.08;;;;;;;;;;4995399;28;20057;-20
2023/10/27 02:42:38;;;;;;;0.60;0.60;;;;;;;;;;4995403;28;20104;-22
2023/10/27 02:45:05;;;;;;;2.10;0.52;;;;;;;;;;4995589;28;20044;-18
2023/10/27 02:47:31;;;;;;;4.75;2.50;;;;;;;;;;4995597;28;20102;-21
2023/10/27 02:49:57;;;;;;;2.05;0.88;;;;;;;;;;4995581;28;20462;-21
2023/10/27 02:52:23;;;;;;;0.57;0.57;;;;;;;;;;4995251;28;20101;-20
2023/10/27 02:54:49;;;;;;;1.85;1.63;;;;;;;;;;4995258;28;20026;-20
2023/10/27 02:57:15;;;;;;;3.90;0.55;;;;;;;;;;4995241;28;20100;-19
2023/10/27 02:59:41;;;;;;;0.63;0.63;;;;;;;;;;4995479;28;20358;-18
2023/10/27 03:02:08;;;;;;;0.50;0.50;;;;;;;;;;4995032;28;20419;-22
2023/10/27 03:04:35;;;;;;;0.98;0.77;;;;;;;;;;4994859;28;20070;-18
2023/10/27 03:07:01;;;;;;;1.95;0.90;;;;;;;;;;4995113;28;20023;-22
2023/10/27 03:09:27;;;;;;;1.30;1.15;;;;;;;;;;4995140;28;20445;-20
2023/10/27 03:11:53;;;;;;;2.38;0.65;;;;;;;;;;4994048;28;20192;-19
2023/10/27 03:14:19;;;;;;;1.15;0.60;;;;;;;;;;4995050;28;20027;-18
2023/10/27 03:16:46;;;;;;;0.73;0.70;;;;;;;;;;4995020;28;20022;-19
2023/10/27 03:19:12;;;;;;;1.27;1.00;;;;;;;;;;4995589;28;20022;-19
2023/10/27 03:21:38;;;;;;;0.55;0.40;;;;;;;;;;4994980;28;20484;-20
2023/10/27 03:24:05;;;;;;;0.68;0.50;;;;;;;;;;4994887;28;20102;-20
2023/10/27 03:26:32;;;;;;;0.77;0.68;;;;;;;;;;4995223;28;20354;-20
2023/10/27 03:28:58;;;;;;;0.90;0.60;;;;;;;;;;4994922;28;20112;-20
2023/10/27 03:31:25;;;;;;;2.17;1.58;;;;;;;;;;4994940;28;20362;-18
2023/10/27 03:33:52;;;;;;;0.80;0.77;;;;;;;;;;4994884;28;20353;-18
2023/10/27 03:36:18;;;;;;;1.05;1.00;;;;;;;;;;4996528;28;20037;-17
2023/10/27 03:38:44;;;;;;;1.25;0.70;;;;;;;;;;4998565;28;20058;-22
2023/10/27 03:41:10;;;;;;;0.60;0.52;;;;;;;;;;4998871;28;20022;-18
2023/10/27 03:43:36;;;;;;;1.08;0.57;;;;;;;;;;4998369;28;20105;-19
2023/10/27 03:46:02;;;;;;;1.70;0.60;;;;;;;;;;4998501;28;20041;-24
2023/10/27 03:48:29;;;;;;;1.65;0.60;;;;;;;;;;4998975;28;20037;-19
2023/10/27 03:50:57;;;;;;;1.23;0.95;;;;;;;;;;4998329;28;20046;-19
2023/10/27 03:53:23;;;;;;;1.63;0.82;;;;;;;;;;4998602;28;20054;-21
2023/10/27 03:55:53;;;;;;;1.05;0.68;;;;;;;;;;4998291;28;20023;-21
2023/10/27 03:58:19;;;;;;;1.25;0.60;;;;;;;;;;4998500;28;20105;-18
2023/10/27 04:00:45;;;;;;;1.48;0.77;;;;;;;;;;4998422;28;20049;-19
2023/10/27 04:03:12;;;;;;;1.23;0.63;;;;;;;;;;4998074;28;20159;-19
2023/10/27 04:05:38;;;;;;;1.08;0.70;;;;;;;;;;4998116;28;20050;-21
2023/10/27 04:08:04;;;;;;;1.13;0.90;;;;;;;;;;4998064;28;20030;-20
2023/10/27 04:10:32;;;;;;;0.73;0.55;;;;;;;;;;4997835;28;20387;-20
2023/10/27 04:12:58;;;;;;;0.60;0.60;;;;;;;;;;4997906;28;20115;-22
2023/10/27 04:15:25;;;;;;;2.83;0.95;;;;;;;;;;4997709;28;20101;-20
2023/10/27 04:17:51;;;;;;;0.90;0.50;;;;;;;;;;4997940;28;20042;-22
2023/10/27 04:20:17;;;;;;;0.60;0.60;;;;;;;;;;4997395;28;20033;-21
2023/10/27 04:22:43;;;;;;;0.60;0.60;;;;;;;;;;4997476;28;20097;-19
2023/10/27 04:25:12;;;;;;;1.13;0.80;;;;;;;;;;4997516;28;20049;-19
2023/10/27 04:27:39;;;;;;;1.08;1.00;;;;;;;;;;4997807;28;20040;-19
2023/10/27 04:30:08;;;;;;;0.90;0.57;;;;;;;;;;4997785;28;20026;-20
2023/10/27 04:32:40;;;;;;;1.77;0.95;;;;;;;;;;4997392;28;20109;-20
2023/10/27 04:35:07;;;;;;;1.90;0.90;;;;;;;;;;4997259;28;20108;-19
2023/10/27 04:37:33;;;;;;;0.93;0.80;;;;;;;;;;4997305;28;20096;-20
2023/10/27 04:40:00;;;;;;;1.10;0.75;;;;;;;;;;4997632;28;20109;-24
2023/10/27 04:42:26;;;;;;;0.95;0.60;;;;;;;;;;4997142;28;20026;-20
2023/10/27 04:44:53;;;;;;;0.55;0.52;;;;;;;;;;4997343;28;20029;-21
2023/10/27 04:47:19;;;;;;;1.13;0.77;;;;;;;;;;4997656;28;20046;-18
2023/10/27 04:49:46;;;;;;;3.15;0.90;;;;;;;;;;4997811;28;20022;-22
2023/10/27 04:52:12;;;;;;;1.30;0.50;;;;;;;;;;4996211;28;20022;-24
2023/10/27 04:54:38;;;;;;;2.08;0.90;;;;;;;;;;4996207;28;20401;-21
2023/10/27 04:57:04;;;;;;;0.70;0.70;;;;;;;;;;4996193;28;20116;-20
2023/10/27 04:59:31;;;;;;;0.82;0.70;;;;;;;;;;4997036;28;20026;-18
2023/10/27 05:01:57;;;;;;;1.45;0.70;;;;;;;;;;4996810;28;20048;-21
2023/10/27 05:04:23;;;;;;;1.67;0.52;;;;;;;;;;4996670;28;20374;-20
2023/10/27 05:06:49;;;;;;;1.20;0.88;;;;;;;;;;4996952;28;20026;-21
2023/10/27 05:09:18;;;;;;;1.33;0.60;;;;;;;;;;4996814;28;20405;-19
2023/10/27 05:11:45;;;;;;;1.67;0.73;;;;;;;;;;4996463;28;20026;-22
2023/10/27 05:14:12;;;;;;;2.85;0.98;;;;;;;;;;4996869;28;20080;-18
2023/10/27 05:16:38;;;;;;;1.40;0.52;;;;;;;;;;4996565;28;20027;-19
2023/10/27 05:19:05;;;;;;;1.77;0.60;;;;;;;;;;4996703;28;20088;-20
2023/10/27 05:21:31;;;;;;;2.60;0.68;;;;;;;;;;4996577;28;20038;-20
2023/10/27 05:23:58;;;;;;;0.98;0.60;;;;;;;;;;4996405;28;20065;-20
2023/10/27 05:26:24;;;;;;;3.08;0.70;;;;;;;;;;4996993;28;20026;-21
2023/10/27 05:28:50;;;;;;;0.80;0.70;;;;;;;;;;4996597;28;20018;-18
2023/10/27 05:31:17;;;;;;;2.35;0.75;;;;;;;;;;4996860;28;20022;-20
2023/10/27 05:33:43;;;;;;;2.75;0.50;;;;;;;;;;4996219;28;20457;-19
2023/10/27 05:36:09;;;;;;;4.63;0.80;;;;;;;;;;4996436;28;20113;-20
2023/10/27 05:38:35;;;;;;;1.42;0.75;;;;;;;;;;4996196;28;20030;-20
2023/10/27 05:41:01;;;;;;;1.95;0.73;;;;;;;;;;4996153;28;20093;-22
2023/10/27 05:43:28;;;;;;;1.38;0.60;;;;;;;;;;4995934;28;20022;-17
2023/10/27 05:45:54;;;;;;;1.50;0.50;;;;;;;;;;4995724;28;20030;-21
2023/10/27 05:48:20;;;;;;;1.50;0.90;;;;;;;;;;4996061;28;20106;-21
2023/10/27 05:50:47;;;;;;;3.67;0.55;;;;;;;;;;4995986;28;20034;-20
2023/10/27 05:53:15;;;;;;;1.45;0.60;;;;;;;;;;4996021;28;20036;-18
2023/10/27 05:55:41;;;;;;;1.67;0.75;;;;;;;;;;4995963;28;20524;-19
2023/10/27 05:58:07;;;;;;;0.45;0.43;;;;;;;;;;4995565;28;20109;-21
2023/10/27 06:00:33;;;;;;;2.33;0.80;;;;;;;;;;4995804;28;20382;-18
2023/10/27 06:03:00;;;;;;;1.45;0.70;;;;;;;;;;4994590;28;20042;-22
2023/10/27 06:05:26;;;;;;;1.27;0.80;;;;;;;;;;4994853;28;20541;-23
2023/10/27 06:07:52;;;;;;;1.70;0.60;;;;;;;;;;4994805;28;20034;-21
2023/10/27 06:10:18;;;;;;;1.00;0.80;;;;;;;;;;4995900;28;20053;-21
2023/10/27 06:12:45;;;;;;;0.90;0.80;;;;;;;;;;4994631;28;20084;-18
2023/10/27 06:15:11;;;;;;;1.65;0.90;;;;;;;;;;4995802;28;20030;-22
2023/10/27 06:17:37;;;;;;;1.02;0.90;;;;;;;;;;4995573;28;20117;-20
2023/10/27 06:20:03;;;;;;;1.38;0.60;;;;;;;;;;4995752;28;20096;-18
2023/10/27 06:22:30;;;;;;;1.90;0.90;;;;;;;;;;4995269;28;20069;-24
2023/10/27 06:24:56;;;;;;;1.10;0.80;;;;;;;;;;4995392;28;20018;-18
2023/10/27 06:27:22;;;;;;;2.25;0.65;;;;;;;;;;4995574;28;20026;-22
2023/10/27 06:29:48;;;;;;;1.83;0.88;;;;;;;;;;4994406;28;20116;-20
2023/10/27 06:32:15;;;;;;;2.47;0.90;;;;;;;;;;4995245;28;20026;-22
2023/10/27 06:34:42;;;;;;;1.08;0.88;;;;;;;;;;4995769;28;20033;-21
2023/10/27 06:37:08;;;;;;;0.73;0.70;;;;;;;;;;4995441;28;20023;-20
2023/10/27 06:39:34;;;;;;;1.13;0.75;;;;;;;;;;4995419;28;20058;-21
2023/10/27 06:42:01;;;;;;;2.15;1.15;;;;;;;;;;4995000;28;20093;-22
2023/10/27 06:44:27;;;;;;;0.90;0.70;;;;;;;;;;4995488;28;20345;-24
2023/10/27 06:46:53;;;;;;;3.22;0.60;;;;;;;;;;4995461;28;20022;-20
2023/10/27 06:49:20;;;;;;;1.48;0.70;;;;;;;;;;4994135;28;20026;-21
2023/10/27 06:51:47;;;;;;;2.13;0.95;;;;;;;;;;4995321;28;20030;-19
2023/10/27 06:54:14;;;;;;;3.30;0.88;;;;;;;;;;4995666;28;20019;-21
2023/10/27 06:56:40;;;;;;;2.00;0.85;;;;;;;;;;4995319;28;20041;-17
2023/10/27 06:59:06;;;;;;;1.58;0.70;;;;;;;;;;4995044;28;20022;-19
2023/10/27 07:01:32;;;;;;;0.85;0.68;;;;;;;;;;4993920;28;20038;-18
2023/10/27 07:03:58;;;;;;;2.30;0.80;;;;;;;;;;4994574;28;20389;-18
2023/10/27 07:06:25;;;;;;;2.15;0.90;;;;;;;;;;4994819;28;20018;-23
2023/10/27 07:08:51;;;;;;;2.65;0.88;;;;;;;;;;4994779;28;20023;-22
2023/10/27 07:11:17;;;;;;;1.25;0.70;;;;;;;;;;4997577;28;20149;-20
2023/10/27 07:13:44;;;;;;;9.77;2.67;;;;;;;;;;4998821;28;20038;-21
2023/10/27 07:16:10;;;;;;;3.90;0.70;;;;;;;;;;4998954;28;20030;-23
2023/10/27 07:18:36;;;;;;;2.60;0.70;;;;;;;;;;4997804;28;20088;-20
2023/10/27 07:21:05;;;;;;;0.80;0.60;;;;;;;;;;4997778;28;20027;-19
2023/10/27 07:23:31;;;;;;;0.70;0.55;;;;;;;;;;4998510;28;20113;-19
2023/10/27 07:25:57;;;;;;;1.25;0.77;;;;;;;;;;4998674;28;20030;-21
2023/10/27 07:28:24;;;;;;;4.38;2.17;;;;;;;;;;4998630;28;20033;-20
2023/10/27 07:30:50;;;;;;;2.58;0.88;;;;;;;;;;4998382;28;20057;-23
2023/10/27 07:33:17;;;;;;;2.67;0.80;;;;;;;;;;4998353;28;20031;-19
2023/10/27 07:35:43;;;;;;;1.38;0.80;;;;;;;;;;4998716;28;20031;-19
2023/10/27 07:38:09;;;;;;;1.15;0.88;;;;;;;;;;4998411;28;20023;-19
2023/10/27 07:40:41;;;;;;;0.77;0.50;;;;;;;;;;4998874;28;20026;-21
2023/10/27 07:43:07;;;;;;;2.33;0.60;;;;;;;;;;4997169;28;20034;-20
2023/10/27 07:45:33;;;;;;;2.08;0.75;;;;;;;;;;4998373;28;20026;-20
2023/10/27 07:48:02;;;;;;;1.08;0.68;;;;;;;;;;4998562;28;20350;-20
2023/10/27 07:50:29;;;;;;;1.30;0.88;;;;;;;;;;4998181;28;20022;-20
2023/10/27 07:52:55;;;;;;;1.52;0.88;;;;;;;;;;4998131;28;20034;-19
2023/10/27 07:55:21;;;;;;;2.42;0.70;;;;;;;;;;4998119;28;20065;-21
2023/10/27 07:57:47;;;;;;;1.20;0.70;;;;;;;;;;4998273;28;20450;-23
2023/10/27 08:00:14;;;;;;;1.17;0.95;;;;;;;;;;4998074;28;20044;-19
2023/10/27 08:02:40;;;;;;;2.33;0.85;;;;;;;;;;4997728;28;20048;-21
2023/10/27 08:05:07;;;;;;;0.88;0.68;;;;;;;;;;4998106;28;20453;-20
2023/10/27 08:07:34;;;;;;;3.80;1.00;;;;;;;;;;4997502;28;20335;-22
2023/10/27 08:10:00;;;;;;;1.45;0.75;;;;;;;;;;4997580;28;20022;-21
2023/10/27 08:12:26;;;;;;;1.50;0.60;;;;;;;;;;4998280;28;20413;-20
2023/10/27 08:14:52;;;;;;;1.42;0.90;;;;;;;;;;4998012;28;20049;-19
2023/10/27 08:17:18;;;;;;;3.47;1.30;;;;;;;;;;4997924;28;20045;-22
2023/10/27 08:19:44;;;;;;;3.35;0.85;;;;;;;;;;4997611;28;20121;-18
2023/10/27 08:22:11;;;;;;;0.65;0.60;;;;;;;;;;4995799;28;20027;-19
2023/10/27 08:24:37;;;;;;;2.45;0.60;;;;;;;;;;4998005;28;20026;-22
2023/10/27 08:27:03;;;;;;;1.15;0.70;;;;;;;;;;4997478;28;20037;-20
2023/10/27 08:29:29;;;;;;;3.15;0.63;;;;;;;;;;4997399;28;20053;-20
2023/10/27 08:31:55;;;;;;;1.25;1.08;;;;;;;;;;4997384;28;20080;-21
2023/10/27 08:34:22;;;;;;;2.25;0.90;;;;;;;;;;4997763;28;20408;-20
2023/10/27 08:36:48;;;;;;;3.55;0.90;;;;;;;;;;4997461;28;20030;-21
2023/10/27 08:39:15;;;;;;;1.67;0.80;;;;;;;;;;4997958;28;20101;-22
2023/10/27 08:41:41;;;;;;;1.00;0.88;;;;;;;;;;4997467;28;20334;-20
2023/10/27 08:44:08;;;;;;;4.50;0.70;;;;;;;;;;4996045;28;20018;-19
2023/10/27 08:46:34;;;;;;;1.35;0.60;;;;;;;;;;4997393;28;20042;-18
2023/10/27 08:49:00;;;;;;;2.67;0.70;;;;;;;;;;4997090;28;20101;-18
2023/10/27 08:51:27;;;;;;;1.23;0.60;;;;;;;;;;4997039;28;20077;-21
2023/10/27 08:53:53;;;;;;;1.80;0.68;;;;;;;;;;4996892;28;20027;-21
2023/10/27 08:56:19;;;;;;;0.90;0.50;;;;;;;;;;4996979;28;20034;-21
2023/10/27 08:58:52;;;;;;;4.00;0.52;;;;;;;;;;4997135;28;20030;-19
2023/10/27 09:01:18;;;;;;;1.50;1.17;;;;;;;;;;4997058;28;20030;-22
2023/10/27 09:04:04;;;;;;;3.13;0.70;;;;;;;;;;4995410;28;20046;-22
2023/10/27 09:06:30;;;;;;;3.10;0.60;;;;;;;;;;4997149;28;20031;-21
2023/10/27 09:08:56;;;;;;;2.53;0.70;;;;;;;;;;4996751;28;20398;-19
2023/10/27 09:11:22;;;;;;;1.33;0.60;;;;;;;;;;4996696;28;20014;-17
2023/10/27 09:13:48;;;;;;;3.13;0.73;;;;;;;;;;4996576;28;20105;-22
2023/10/27 09:16:27;;;;;;;1.15;0.85;;;;;;;;;;4995584;28;20049;-22
2023/10/27 09:18:55;;;;;;;0.52;0.52;;;;;;;;;;4996709;28;20093;-19
2023/10/27 09:21:32;;;;;;;2.38;0.73;;;;;;;;;;4996444;28;20106;-21
2023/10/27 09:23:58;;;;;;;1.17;0.75;;;;;;;;;;4996231;28;20134;-22
2023/10/27 09:26:28;;;;;;;4.78;0.55;;;;;;;;;;4996345;28;20488;-18
2023/10/27 09:29:03;;;;;;;0.68;0.50;;;;;;;;;;4996550;28;20049;-20
2023/10/27 09:31:33;;;;;;;1.17;0.70;;;;;;;;;;4996591;28;20023;-22
2023/10/27 09:34:19;;;;;;;1.37;0.80;;;;;;;;;;4995732;28;20041;-19
2023/10/27 09:36:46;;;;;;;0.45;0.45;;;;;;;;;;4996365;28;20469;-19
2023/10/27 09:39:17;;;;;;;1.60;0.85;;;;;;;;;;4996285;28;20481;-18
2023/10/27 09:41:47;;;;;;;1.95;0.50;;;;;;;;;;4996604;28;20389;-22
2023/10/27 09:44:20;;;;;;;1.92;0.90;;;;;;;;;;4995360;28;20499;-25
2023/10/27 09:46:54;;;;;;;1.20;0.47;;;;;;;;;;4996554;28;20053;-22
2023/10/27 09:49:25;;;;;;;1.75;0.70;;;;;;;;;;4996094;28;20023;-24
2023/10/27 09:51:53;;;;;;;8.85;0.80;;;;;;;;;;4996082;28;20022;-18
2023/10/27 09:54:19;;;;;;;0.57;0.55;;;;;;;;;;4995958;28;20381;-18
2023/10/27 09:56:46;;;;;;;1.13;0.70;;;;;;;;;;4994765;28;20023;-17
2023/10/27 09:59:12;;;;;;;1.30;0.73;;;;;;;;;;4996129;28;20030;-20
2023/10/27 10:01:39;;;;;;;2.58;1.17;;;;;;;;;;4995737;28;20041;-20
2023/10/27 10:04:06;;;;;;;1.15;0.80;;;;;;;;;;4995459;28;20508;-19
2023/10/27 10:06:32;;;;;;;1.60;0.77;;;;;;;;;;4995906;28;20062;-20
2023/10/27 10:09:11;;;;;;;4.15;1.15;;;;;;;;;;4995993;28;20033;-18
2023/10/27 10:11:53;;;;;;;2.40;0.73;;;;;;;;;;4995397;28;20030;-20
2023/10/27 10:14:42;;;;;;;4.20;0.70;;;;;;;;;;4995709;28;20161;-20
2023/10/27 10:17:08;;;;;;;2.65;0.55;;;;;;;;;;4996273;28;20018;-20
2023/10/27 10:19:50;;;;;;;0.98;0.57;;;;;;;;;;4995560;28;20065;-20
2023/10/27 10:22:35;;;;;;;4.53;0.93;;;;;;;;;;4995385;28;20019;-21
2023/10/27 10:25:21;;;;;;;1.20;0.70;;;;;;;;;;4995730;28;20030;-17
2023/10/27 10:28:08;;;;;;;1.15;0.60;;;;;;;;;;4988555;28;20034;-19
2023/10/27 10:30:41;;;;;;;1.52;1.00;;;;;;;;;;4988474;28;20038;-20
2023/10/27 10:33:19;;;;;;;3.40;0.80;;;;;;;;;;4995268;28;20030;-18
2023/10/27 10:35:47;;;;;;;1.50;0.75;;;;;;;;;;4995247;28;20088;-19
2023/10/27 10:38:23;;;;;;;2.92;1.05;;;;;;;;;;4995262;28;20030;-21
2023/10/27 10:40:53;;;;;;;2.25;1.10;;;;;;;;;;4995042;28;20037;-22
2023/10/27 10:43:36;;;;;;;8.07;0.97;;;;;;;;;;4995151;28;20033;-20
2023/10/27 10:46:03;;;;;;;4.05;0.55;;;;;;;;;;4994203;28;20079;-20
2023/10/27 10:48:30;;;;;;;1.25;0.90;;;;;;;;;;4994989;28;20034;-18
2023/10/27 10:51:03;;;;;;;0.93;0.93;;;;;;;;;;4994865;28;20022;-20
2023/10/27 10:53:30;;;;;;;1.45;0.73;;;;;;;;;;4994768;28;20030;-21
2023/10/27 10:56:00;;;;;;;5.65;0.77;;;;;;;;;;4994927;28;20441;-19
2023/10/27 10:58:30;;;;;;;1.35;0.65;;;;;;;;;;4994467;28;20082;-22
2023/10/27 11:00:57;;;;;;;1.80;0.60;;;;;;;;;;4994184;28;20026;-21
2023/10/27 11:03:24;;;;;;;0.55;0.55;;;;;;;;;;4994277;28;20121;-19
2023/10/27 11:05:57;;;;;;;1.50;0.88;;;;;;;;;;4994960;28;20076;-22
2023/10/27 11:08:27;;;;;;;1.75;0.80;;;;;;;;;;4994812;28;20050;-26
2023/10/27 11:11:01;;;;;;;0.70;0.65;;;;;;;;;;4994695;28;20022;-18
2023/10/27 11:13:27;;;;;;;1.50;0.80;;;;;;;;;;4994610;28;20034;-20
2023/10/27 11:15:54;;;;;;;1.42;0.70;;;;;;;;;;4994636;28;20039;-18
2023/10/27 11:18:20;;;;;;;1.20;0.82;;;;;;;;;;4995164;28;20037;-24
2023/10/27 11:20:48;;;;;;;1.00;0.90;;;;;;;;;;4994567;28;20061;-19
2023/10/27 11:23:15;;;;;;;2.88;0.80;;;;;;;;;;4994324;28;20113;-21
2023/10/27 11:25:42;;;;;;;0.60;0.60;;;;;;;;;;4994850;28;20362;-19
2023/10/27 11:28:27;;;;;;;0.68;0.68;;;;;;;;;;4995023;28;20060;-17
2023/10/27 11:31:11;;;;;;;0.80;0.63;;;;;;;;;;4994885;28;20050;-21
2023/10/27 11:33:57;;;;;;;2.28;0.57;;;;;;;;;;4994756;28;20026;-24
2023/10/27 11:36:24;;;;;;;2.50;0.63;;;;;;;;;;4994802;28;20046;-19
2023/10/27 11:38:50;;;;;;;2.55;0.70;;;;;;;;;;4994940;28;20049;-19
2023/10/27 11:41:16;;;;;;;4.15;1.30;;;;;;;;;;4994546;28;20026;-18
2023/10/27 11:43:42;;;;;;;1.20;0.80;;;;;;;;;;4993725;28;20037;-19
2023/10/27 11:46:18;;;;;;;1.83;0.90;;;;;;;;;;4994880;28;20049;-24
2023/10/27 11:48:45;;;;;;;2.17;0.80;;;;;;;;;;4994879;28;20026;-22
2023/10/27 11:51:13;;;;;;;3.15;0.60;;;;;;;;;;4993586;28;20037;-25
2023/10/27 11:53:43;;;;;;;1.38;0.70;;;;;;;;;;4995077;28;20058;-20
2023/10/27 11:56:09;;;;;;;1.13;1.00;;;;;;;;;;4995191;28;20033;-22
2023/10/27 11:58:35;;;;;;;1.67;0.88;;;;;;;;;;4998317;28;20396;-20
2023/10/27 12:01:02;;;;;;;0.70;0.60;;;;;;;;;;4998220;28;20022;-22
2023/10/27 12:03:28;;;;;;;2.25;0.80;;;;;;;;;;4997606;28;20354;-26
2023/10/27 12:05:54;;;;;;;4.00;1.67;;;;;;;;;;4996936;28;20169;-20
2023/10/27 12:08:21;;;;;;;2.28;0.90;;;;;;;;;;4997848;28;20437;-16
2023/10/27 12:10:53;;;;;;;2.92;0.82;;;;;;;;;;4997659;28;20022;-19
2023/10/27 12:13:20;;;;;;;1.65;1.00;;;;;;;;;;4998032;28;20118;-22
2023/10/27 12:15:48;;;;;;;2.88;1.05;;;;;;;;;;4997912;28;20342;-20
2023/10/27 12:18:19;;;;;;;2.20;0.82;;;;;;;;;;4997898;28;20026;-19
2023/10/27 12:20:46;;;;;;;2.65;0.75;;;;;;;;;;4997588;28;20026;-19
2023/10/27 12:23:12;;;;;;;1.17;0.77;;;;;;;;;;4997898;28;20026;-23
2023/10/27 12:25:39;;;;;;;3.00;0.68;;;;;;;;;;4996471;28;20027;-20
2023/10/27 12:28:07;;;;;;;5.32;1.52;;;;;;;;;;4997451;28;20045;-21
2023/10/27 12:30:36;;;;;;;4.43;1.30;;;;;;;;;;4997279;28;20391;-20
2023/10/27 12:33:03;;;;;;;2.60;1.00;;;;;;;;;;4997585;28;20098;-21
2023/10/27 12:35:30;;;;;;;1.65;0.73;;;;;;;;;;4997618;28;20030;-24
2023/10/27 12:37:56;;;;;;;2.65;0.93;;;;;;;;;;4997230;28;20034;-24
2023/10/27 12:40:24;;;;;;;9.95;1.80;;;;;;;;;;4997216;28;20042;-21
2023/10/27 12:42:51;;;;;;;6.35;1.10;;;;;;;;;;4997040;28;20022;-19
2023/10/27 12:45:17;;;;;;;5.22;1.13;;;;;;;;;;4997110;28;20041;-21
2023/10/27 12:47:47;;;;;;;4.30;0.88;;;;;;;;;;4997358;28;20019;-21
2023/10/27 12:50:14;;;;;;;1.70;0.80;;;;;;;;;;4997557;28;20401;-19
2023/10/27 12:52:41;;;;;;;5.38;0.95;;;;;;;;;;4997233;28;20027;-19
2023/10/27 12:55:07;;;;;;;2.83;0.95;;;;;;;;;;4997237;28;20077;-22
2023/10/27 12:57:34;;;;;;;1.95;0.95;;;;;;;;;;4996266;28;20030;-19
2023/10/27 13:00:01;;;;;;;4.97;0.90;;;;;;;;;;4996149;28;20409;-19
2023/10/27 13:02:27;;;;;;;4.40;1.00;;;;;;;;;;4996909;28;20117;-19
2023/10/27 13:04:54;;;;;;;6.32;1.67;;;;;;;;;;4996847;28;20117;-20
2023/10/27 13:07:20;;;;;;;5.53;2.15;;;;;;;;;;4996878;28;20493;-17
2023/10/27 13:09:46;;;;;;;2.53;1.20;;;;;;;;;;4996942;28;20101;-21
2023/10/27 13:12:12;;;;;;;1.55;0.90;;;;;;;;;;4996855;28;20026;-26
2023/10/27 13:14:40;;;;;;;3.25;0.80;;;;;;;;;;4997141;28;20112;-24
2023/10/27 13:17:12;;;;;;;5.88;1.10;;;;;;;;;;4997023;28;20365;-20
2023/10/27 13:19:38;;;;;;;1.40;0.77;;;;;;;;;;4997014;28;20112;-19
2023/10/27 13:22:05;;;;;;;1.52;0.75;;;;;;;;;;4996602;28;20813;-20
2023/10/27 13:24:32;;;;;;;1.30;0.90;;;;;;;;;;4996480;28;20374;-22
2023/10/27 13:26:58;;;;;;;5.15;1.10;;;;;;;;;;4997308;28;20458;-19
2023/10/27 13:29:24;;;;;;;3.38;1.13;;;;;;;;;;4996523;28;20100;-18
2023/10/27 13:31:50;;;;;;;3.63;0.70;;;;;;;;;;4996342;28;20354;-20
2023/10/27 13:34:17;;;;;;;2.90;0.95;;;;;;;;;;4996469;28;20461;-19
2023/10/27 13:36:43;;;;;;;3.25;1.08;;;;;;;;;;4996309;28;20034;-30
2023/10/27 13:39:10;;;;;;;5.43;0.82;;;;;;;;;;4996294;28;20097;-20
2023/10/27 13:41:36;;;;;;;5.40;0.95;;;;;;;;;;4996531;28;20030;-23
2023/10/27 13:44:06;;;;;;;4.55;1.33;;;;;;;;;;4995223;28;20034;-21
2023/10/27 13:46:35;;;;;;;3.25;0.85;;;;;;;;;;4996517;28;20042;-24
2023/10/27 13:49:09;;;;;;;4.07;1.05;;;;;;;;;;4996377;28;20084;-20
2023/10/27 13:51:38;;;;;;;1.40;0.82;;;;;;;;;;4996097;28;20033;-20
2023/10/27 13:54:04;;;;;;;1.67;0.90;;;;;;;;;;4995972;28;20034;-23
2023/10/27 13:56:31;;;;;;;1.85;0.82;;;;;;;;;;4996132;28;20095;-21
2023/10/27 13:58:58;;;;;;;2.70;1.02;;;;;;;;;;4995522;28;20030;-19
2023/10/27 14:01:25;;;;;;;4.10;0.73;;;;;;;;;;4995992;28;20022;-19
2023/10/27 14:03:51;;;;;;;3.30;1.10;;;;;;;;;;4995651;28;20053;-21
2023/10/27 14:06:17;;;;;;;2.42;1.00;;;;;;;;;;4995849;28;20037;-22
2023/10/27 14:08:45;;;;;;;2.15;0.90;;;;;;;;;;4995593;28;20046;-24
2023/10/27 14:11:11;;;;;;;2.30;1.02;;;;;;;;;;4995755;28;20026;-20
2023/10/27 14:13:37;;;;;;;1.67;1.02;;;;;;;;;;4995547;28;20081;-23
2023/10/27 14:16:04;;;;;;;2.58;0.98;;;;;;;;;;4995708;28;20188;-24
2023/10/27 14:18:31;;;;;;;1.35;0.77;;;;;;;;;;4995335;28;20334;-20
2023/10/27 14:20:59;;;;;;;4.30;0.98;;;;;;;;;;4995453;28;20041;-20
2023/10/27 14:23:26;;;;;;;2.00;0.77;;;;;;;;;;4995401;28;20038;-18
2023/10/27 14:25:52;;;;;;;2.60;1.13;;;;;;;;;;4995414;28;20030;-22
2023/10/27 14:28:19;;;;;;;4.82;1.23;;;;;;;;;;4995651;28;20037;-18
2023/10/27 14:30:45;;;;;;;1.30;0.95;;;;;;;;;;4995223;28;20137;-21
2023/10/27 14:33:11;;;;;;;2.42;1.15;;;;;;;;;;4994299;28;20034;-21
2023/10/27 14:35:38;;;;;;;10.25;1.10;;;;;;;;;;4995795;28;20026;-21
2023/10/27 14:38:04;;;;;;;5.43;1.20;;;;;;;;;;4995208;28;20109;-24
2023/10/27 14:40:30;;;;;;;3.72;1.52;;;;;;;;;;4995189;28;20022;-20
2023/10/27 14:43:00;;;;;;;4.68;1.02;;;;;;;;;;4995185;28;20359;-21
2023/10/27 14:45:26;;;;;;;3.85;2.03;;;;;;;;;;4995262;28;20042;-22